sensor_id;sensor_type;location;lat;lon;timestamp;temperature;humidity
23550;DHT22;11953;49.010;8.608;2023-02-02T00:00:59;6.50;99.90
23550;DHT22;11953;49.010;8.608;2023-02-02T00:03:46;6.40;99.90
23550;DHT22;11953;49.010;8.608;2023-02-02T00:06:36;6.40;99.90
23550;DHT22;11953;49.010;8.608;2023-02-02T00:09:25;6.40;99.90
23550;DHT22;11953;49.010;8.608;2023-02-02T00:12:13;6.40;99.90
23550;DHT22;11953;49.010;8.608;2023-02-02T00:14:59;6.40;99.90
23550;DHT22;11953;49.010;8.608;2023-02-02T00:17:46;6.40;99.90
23550;DHT22;11953;49.010;8.608;2023-02-02T00:20:32;6.40;99.90
23550;DHT22;11953;49.010;8.608;2023-02-02T00:23:21;6.40;99.90
23550;DHT22;11953;49.010;8.608;2023-02-02T00:26:09;6.30;99.90
23550;DHT22;11953;49.010;8.608;2023-02-02T00:28:55;6.30;99.90
23550;DHT22;11953;49.010;8.608;2023-02-02T00:31:42;6.30;99.90
23550;DHT22;11953;49.010;8.608;2023-02-02T00:34:28;6.30;99.90
23550;DHT22;11953;49.010;8.608;2023-02-02T00:37:15;6.30;99.90
23550;DHT22;11953;49.010;8.608;2023-02-02T00:40:04;6.30;99.90
23550;DHT22;11953;49.010;8.608;2023-02-02T00:42:51;6.30;99.90
23550;DHT22;11953;49.010;8.608;2023-02-02T00:45:37;6.30;99.90
23550;DHT22;11953;49.010;8.608;2023-02-02T00:48:23;6.30;99.90
23550;DHT22;11953;49.010;8.608;2023-02-02T00:51:11;6.30;99.90
23550;DHT22;11953;49.010;8.608;2023-02-02T00:53:57;6.30;99.90
23550;DHT22;11953;49.010;8.608;2023-02-02T00:56:45;6.30;99.90
23550;DHT22;11953;49.010;8.608;2023-02-02T00:59:31;6.30;99.90
23550;DHT22;11953;49.010;8.608;2023-02-02T01:02:18;6.30;99.90
23550;DHT22;11953;49.010;8.608;2023-02-02T01:05:05;6.30;99.90
23550;DHT22;11953;49.010;8.608;2023-02-02T01:07:51;6.30;99.90
23550;DHT22;11953;49.010;8.608;2023-02-02T01:10:38;6.30;99.90
23550;DHT22;11953;49.010;8.608;2023-02-02T01:13:26;6.30;99.90
23550;DHT22;11953;49.010;8.608;2023-02-02T01:16:13;6.30;99.90
23550;DHT22;11953;49.010;8.608;2023-02-02T01:19:00;6.30;99.90
23550;DHT22;11953;49.010;8.608;2023-02-02T01:21:46;6.30;99.90
23550;DHT22;11953;49.010;8.608;2023-02-02T01:24:33;6.40;99.90
23550;DHT22;11953;49.010;8.608;2023-02-02T01:27:20;6.40;99.90
23550;DHT22;11953;49.010;8.608;2023-02-02T01:30:09;6.40;99.90
23550;DHT22;11953;49.010;8.608;2023-02-02T01:32:55;6.40;99.90
23550;DHT22;11953;49.010;8.608;2023-02-02T01:35:45;6.40;99.90
23550;DHT22;11953;49.010;8.608;2023-02-02T01:38:32;6.40;99.90
23550;DHT22;11953;49.010;8.608;2023-02-02T01:41:21;6.40;99.90
23550;DHT22;11953;49.010;8.608;2023-02-02T01:47:33;6.40;99.90
23550;DHT22;11953;49.010;8.608;2023-02-02T01:50:23;6.40;99.90
23550;DHT22;11953;49.010;8.608;2023-02-02T01:53:12;6.40;99.90
23550;DHT22;11953;49.010;8.608;2023-02-02T01:55:59;6.40;99.90
23550;DHT22;11953;49.010;8.608;2023-02-02T01:58:47;6.40;99.90
23550;DHT22;11953;49.010;8.608;2023-02-02T02:01:33;6.30;99.90
23550;DHT22;11953;49.010;8.608;2023-02-02T02:04:23;6.30;99.90
23550;DHT22;11953;49.010;8.608;2023-02-02T02:07:11;6.30;99.90
23550;DHT22;11953;49.010;8.608;2023-02-02T02:09:57;6.20;99.90
23550;DHT22;11953;49.010;8.608;2023-02-02T02:12:46;6.20;99.90
23550;DHT22;11953;49.010;8.608;2023-02-02T02:15:37;6.20;99.90
23550;DHT22;11953;49.010;8.608;2023-02-02T02:18:49;6.30;99.90
23550;DHT22;11953;49.010;8.608;2023-02-02T02:21:52;6.30;99.90
23550;DHT22;11953;49.010;8.608;2023-02-02T02:25:21;6.30;99.90
23550;DHT22;11953;49.010;8.608;2023-02-02T02:28:55;6.30;99.90
23550;DHT22;11953;49.010;8.608;2023-02-02T02:34:59;6.30;99.90
23550;DHT22;11953;49.010;8.608;2023-02-02T02:37:50;6.30;99.90
23550;DHT22;11953;49.010;8.608;2023-02-02T02:40:43;6.30;99.90
23550;DHT22;11953;49.010;8.608;2023-02-02T02:43:34;6.30;99.90
23550;DHT22;11953;49.010;8.608;2023-02-02T02:46:23;6.30;99.90
23550;DHT22;11953;49.010;8.608;2023-02-02T02:49:11;6.30;99.90
23550;DHT22;11953;49.010;8.608;2023-02-02T02:51:59;6.30;99.90
23550;DHT22;11953;49.010;8.608;2023-02-02T02:54:52;6.30;99.90
23550;DHT22;11953;49.010;8.608;2023-02-02T02:57:51;6.30;99.90
23550;DHT22;11953;49.010;8.608;2023-02-02T03:00:50;6.30;99.90
23550;DHT22;11953;49.010;8.608;2023-02-02T03:03:53;6.30;99.90
23550;DHT22;11953;49.010;8.608;2023-02-02T03:06:46;6.30;99.90
23550;DHT22;11953;49.010;8.608;2023-02-02T03:09:36;6.30;99.90
23550;DHT22;11953;49.010;8.608;2023-02-02T03:12:25;6.30;99.90
23550;DHT22;11953;49.010;8.608;2023-02-02T03:15:12;6.30;99.90
23550;DHT22;11953;49.010;8.608;2023-02-02T03:17:59;6.30;99.90
23550;DHT22;11953;49.010;8.608;2023-02-02T03:20:46;6.30;99.90
23550;DHT22;11953;49.010;8.608;2023-02-02T03:23:33;6.30;99.90
23550;DHT22;11953;49.010;8.608;2023-02-02T03:26:21;6.30;99.90
23550;DHT22;11953;49.010;8.608;2023-02-02T03:29:08;6.30;99.90
23550;DHT22;11953;49.010;8.608;2023-02-02T03:31:55;6.40;99.90
23550;DHT22;11953;49.010;8.608;2023-02-02T03:34:42;6.40;99.90
23550;DHT22;11953;49.010;8.608;2023-02-02T03:37:29;6.30;99.90
23550;DHT22;11953;49.010;8.608;2023-02-02T03:40:15;6.30;99.90
23550;DHT22;11953;49.010;8.608;2023-02-02T03:43:03;6.30;99.90
23550;DHT22;11953;49.010;8.608;2023-02-02T03:45:55;6.30;99.90
23550;DHT22;11953;49.010;8.608;2023-02-02T03:48:41;6.30;99.90
23550;DHT22;11953;49.010;8.608;2023-02-02T03:51:28;6.30;99.90
23550;DHT22;11953;49.010;8.608;2023-02-02T03:54:14;6.30;99.90
23550;DHT22;11953;49.010;8.608;2023-02-02T03:57:01;6.30;99.90
23550;DHT22;11953;49.010;8.608;2023-02-02T03:59:48;6.20;99.90
23550;DHT22;11953;49.010;8.608;2023-02-02T04:02:35;6.20;99.90
23550;DHT22;11953;49.010;8.608;2023-02-02T04:05:22;6.30;99.90
23550;DHT22;11953;49.010;8.608;2023-02-02T04:08:09;6.20;99.90
23550;DHT22;11953;49.010;8.608;2023-02-02T04:10:55;6.20;99.90
23550;DHT22;11953;49.010;8.608;2023-02-02T04:13:42;6.20;99.90
23550;DHT22;11953;49.010;8.608;2023-02-02T04:16:30;6.20;99.90
23550;DHT22;11953;49.010;8.608;2023-02-02T04:19:20;6.20;99.90
23550;DHT22;11953;49.010;8.608;2023-02-02T04:22:07;6.20;99.90
23550;DHT22;11953;49.010;8.608;2023-02-02T04:24:53;6.20;99.90
23550;DHT22;11953;49.010;8.608;2023-02-02T04:27:39;6.20;99.90
23550;DHT22;11953;49.010;8.608;2023-02-02T04:30:26;6.20;99.90
23550;DHT22;11953;49.010;8.608;2023-02-02T04:33:14;6.20;99.90
23550;DHT22;11953;49.010;8.608;2023-02-02T04:36:02;6.20;99.90
23550;DHT22;11953;49.010;8.608;2023-02-02T04:38:49;6.20;99.90
23550;DHT22;11953;49.010;8.608;2023-02-02T04:41:35;6.20;99.90
23550;DHT22;11953;49.010;8.608;2023-02-02T04:44:22;6.20;99.90
23550;DHT22;11953;49.010;8.608;2023-02-02T04:47:08;6.20;99.90
23550;DHT22;11953;49.010;8.608;2023-02-02T04:49:56;6.20;99.90
23550;DHT22;11953;49.010;8.608;2023-02-02T04:52:43;6.20;99.90
23550;DHT22;11953;49.010;8.608;2023-02-02T04:55:30;6.20;99.90
23550;DHT22;11953;49.010;8.608;2023-02-02T04:58:16;6.20;99.90
23550;DHT22;11953;49.010;8.608;2023-02-02T05:01:08;6.20;99.90
23550;DHT22;11953;49.010;8.608;2023-02-02T05:03:55;6.20;99.90
23550;DHT22;11953;49.010;8.608;2023-02-02T05:06:43;6.20;99.90
23550;DHT22;11953;49.010;8.608;2023-02-02T05:09:29;6.20;99.90
23550;DHT22;11953;49.010;8.608;2023-02-02T05:12:16;6.20;99.90
23550;DHT22;11953;49.010;8.608;2023-02-02T05:15:04;6.20;99.90
23550;DHT22;11953;49.010;8.608;2023-02-02T05:17:50;6.20;99.90
23550;DHT22;11953;49.010;8.608;2023-02-02T05:20:37;6.20;99.90
23550;DHT22;11953;49.010;8.608;2023-02-02T05:23:26;6.20;99.90
23550;DHT22;11953;49.010;8.608;2023-02-02T05:26:14;6.20;99.90
23550;DHT22;11953;49.010;8.608;2023-02-02T05:29:01;6.20;99.90
23550;DHT22;11953;49.010;8.608;2023-02-02T05:31:48;6.20;99.90
23550;DHT22;11953;49.010;8.608;2023-02-02T05:34:34;6.20;99.90
23550;DHT22;11953;49.010;8.608;2023-02-02T05:37:21;6.20;99.90
23550;DHT22;11953;49.010;8.608;2023-02-02T05:40:10;6.20;99.90
23550;DHT22;11953;49.010;8.608;2023-02-02T05:42:56;6.10;99.90
23550;DHT22;11953;49.010;8.608;2023-02-02T05:45:43;6.10;99.90
23550;DHT22;11953;49.010;8.608;2023-02-02T05:48:30;6.10;99.90
23550;DHT22;11953;49.010;8.608;2023-02-02T05:51:19;6.10;99.90
23550;DHT22;11953;49.010;8.608;2023-02-02T05:54:06;6.10;99.90
23550;DHT22;11953;49.010;8.608;2023-02-02T05:56:54;6.20;99.90
23550;DHT22;11953;49.010;8.608;2023-02-02T05:59:41;6.20;99.90
23550;DHT22;11953;49.010;8.608;2023-02-02T06:02:28;6.20;99.90
23550;DHT22;11953;49.010;8.608;2023-02-02T06:05:15;6.20;99.90
23550;DHT22;11953;49.010;8.608;2023-02-02T06:08:02;6.20;99.90
23550;DHT22;11953;49.010;8.608;2023-02-02T06:10:49;6.20;99.90
23550;DHT22;11953;49.010;8.608;2023-02-02T06:13:37;6.20;99.90
23550;DHT22;11953;49.010;8.608;2023-02-02T06:16:23;6.20;99.90
23550;DHT22;11953;49.010;8.608;2023-02-02T06:19:10;6.10;99.90
23550;DHT22;11953;49.010;8.608;2023-02-02T06:21:57;6.10;99.90
23550;DHT22;11953;49.010;8.608;2023-02-02T06:24:44;6.20;99.90
23550;DHT22;11953;49.010;8.608;2023-02-02T06:27:31;6.10;99.90
23550;DHT22;11953;49.010;8.608;2023-02-02T06:30:19;6.10;99.90
23550;DHT22;11953;49.010;8.608;2023-02-02T06:33:05;6.10;99.90
23550;DHT22;11953;49.010;8.608;2023-02-02T06:35:52;6.10;99.90
23550;DHT22;11953;49.010;8.608;2023-02-02T06:38:38;6.10;99.90
23550;DHT22;11953;49.010;8.608;2023-02-02T06:41:25;6.10;99.90
23550;DHT22;11953;49.010;8.608;2023-02-02T06:44:12;6.00;99.90
23550;DHT22;11953;49.010;8.608;2023-02-02T06:47:00;6.10;99.90
23550;DHT22;11953;49.010;8.608;2023-02-02T06:49:46;6.10;99.90
23550;DHT22;11953;49.010;8.608;2023-02-02T06:52:33;6.00;99.90
23550;DHT22;11953;49.010;8.608;2023-02-02T06:55:19;6.00;99.90
23550;DHT22;11953;49.010;8.608;2023-02-02T06:58:06;6.00;99.90
23550;DHT22;11953;49.010;8.608;2023-02-02T07:00:53;6.00;99.90
23550;DHT22;11953;49.010;8.608;2023-02-02T07:03:41;6.00;99.90
23550;DHT22;11953;49.010;8.608;2023-02-02T07:06:28;6.00;99.90
23550;DHT22;11953;49.010;8.608;2023-02-02T07:09:15;6.00;99.90
23550;DHT22;11953;49.010;8.608;2023-02-02T07:12:02;6.00;99.90
23550;DHT22;11953;49.010;8.608;2023-02-02T07:14:49;6.00;99.90
23550;DHT22;11953;49.010;8.608;2023-02-02T07:17:36;6.10;99.90
23550;DHT22;11953;49.010;8.608;2023-02-02T07:20:23;6.10;99.90
23550;DHT22;11953;49.010;8.608;2023-02-02T07:23:10;6.10;99.90
23550;DHT22;11953;49.010;8.608;2023-02-02T07:26:01;6.00;99.90
23550;DHT22;11953;49.010;8.608;2023-02-02T07:28:48;6.10;99.90
23550;DHT22;11953;49.010;8.608;2023-02-02T07:31:35;6.10;99.90
23550;DHT22;11953;49.010;8.608;2023-02-02T07:34:22;6.20;99.90
23550;DHT22;11953;49.010;8.608;2023-02-02T07:37:10;6.20;99.90
23550;DHT22;11953;49.010;8.608;2023-02-02T07:39:57;6.20;99.90
23550;DHT22;11953;49.010;8.608;2023-02-02T07:42:45;6.30;99.90
23550;DHT22;11953;49.010;8.608;2023-02-02T07:45:31;6.30;99.90
23550;DHT22;11953;49.010;8.608;2023-02-02T07:48:18;6.30;99.90
23550;DHT22;11953;49.010;8.608;2023-02-02T07:51:06;6.30;99.90
23550;DHT22;11953;49.010;8.608;2023-02-02T07:53:54;6.30;99.90
23550;DHT22;11953;49.010;8.608;2023-02-02T07:56:42;6.40;99.90
23550;DHT22;11953;49.010;8.608;2023-02-02T07:59:29;6.40;99.90
23550;DHT22;11953;49.010;8.608;2023-02-02T08:02:17;6.40;99.90
23550;DHT22;11953;49.010;8.608;2023-02-02T08:05:04;6.50;99.90
23550;DHT22;11953;49.010;8.608;2023-02-02T08:07:51;6.40;99.90
23550;DHT22;11953;49.010;8.608;2023-02-02T08:10:39;6.50;99.90
23550;DHT22;11953;49.010;8.608;2023-02-02T08:13:31;6.50;99.90
23550;DHT22;11953;49.010;8.608;2023-02-02T08:16:19;6.50;99.90
23550;DHT22;11953;49.010;8.608;2023-02-02T08:19:06;6.60;99.90
23550;DHT22;11953;49.010;8.608;2023-02-02T08:21:52;6.60;99.90
23550;DHT22;11953;49.010;8.608;2023-02-02T08:24:39;6.50;99.90
23550;DHT22;11953;49.010;8.608;2023-02-02T08:27:28;6.50;99.90
23550;DHT22;11953;49.010;8.608;2023-02-02T08:30:15;6.50;99.90
23550;DHT22;11953;49.010;8.608;2023-02-02T08:33:02;6.50;99.90
23550;DHT22;11953;49.010;8.608;2023-02-02T08:35:49;6.60;99.90
23550;DHT22;11953;49.010;8.608;2023-02-02T08:38:36;6.60;99.90
23550;DHT22;11953;49.010;8.608;2023-02-02T08:41:24;6.50;99.90
23550;DHT22;11953;49.010;8.608;2023-02-02T08:44:14;6.50;99.90
23550;DHT22;11953;49.010;8.608;2023-02-02T08:47:00;6.50;99.90
23550;DHT22;11953;49.010;8.608;2023-02-02T08:49:47;6.50;99.90
23550;DHT22;11953;49.010;8.608;2023-02-02T08:52:34;6.50;99.90
23550;DHT22;11953;49.010;8.608;2023-02-02T08:55:20;6.50;99.90
23550;DHT22;11953;49.010;8.608;2023-02-02T08:58:07;6.50;99.90
23550;DHT22;11953;49.010;8.608;2023-02-02T09:01:03;6.60;99.90
23550;DHT22;11953;49.010;8.608;2023-02-02T09:03:53;6.60;99.90
23550;DHT22;11953;49.010;8.608;2023-02-02T09:06:40;6.60;99.90
23550;DHT22;11953;49.010;8.608;2023-02-02T09:09:27;6.70;99.90
23550;DHT22;11953;49.010;8.608;2023-02-02T09:12:14;6.60;99.90
23550;DHT22;11953;49.010;8.608;2023-02-02T09:15:00;6.60;99.90
23550;DHT22;11953;49.010;8.608;2023-02-02T09:17:49;6.60;99.90
23550;DHT22;11953;49.010;8.608;2023-02-02T09:20:35;6.60;99.90
23550;DHT22;11953;49.010;8.608;2023-02-02T09:23:23;6.60;99.90
23550;DHT22;11953;49.010;8.608;2023-02-02T09:26:11;6.60;99.90
23550;DHT22;11953;49.010;8.608;2023-02-02T09:28:59;6.70;99.90
23550;DHT22;11953;49.010;8.608;2023-02-02T09:31:47;6.70;99.90
23550;DHT22;11953;49.010;8.608;2023-02-02T09:34:35;6.80;99.90
23550;DHT22;11953;49.010;8.608;2023-02-02T09:37:24;6.80;99.90
23550;DHT22;11953;49.010;8.608;2023-02-02T09:40:14;6.80;99.90
23550;DHT22;11953;49.010;8.608;2023-02-02T09:43:23;6.90;99.90
23550;DHT22;11953;49.010;8.608;2023-02-02T09:46:18;6.90;99.90
23550;DHT22;11953;49.010;8.608;2023-02-02T09:49:12;6.90;99.90
23550;DHT22;11953;49.010;8.608;2023-02-02T09:52:07;7.00;99.90
23550;DHT22;11953;49.010;8.608;2023-02-02T09:55:01;6.90;99.90
23550;DHT22;11953;49.010;8.608;2023-02-02T09:57:52;7.00;99.90
23550;DHT22;11953;49.010;8.608;2023-02-02T10:00:44;6.90;99.90
23550;DHT22;11953;49.010;8.608;2023-02-02T10:03:36;7.00;99.90
23550;DHT22;11953;49.010;8.608;2023-02-02T10:06:31;7.00;99.90
23550;DHT22;11953;49.010;8.608;2023-02-02T10:09:29;7.00;99.90
23550;DHT22;11953;49.010;8.608;2023-02-02T10:12:24;7.00;99.90
23550;DHT22;11953;49.010;8.608;2023-02-02T10:15:19;7.00;99.90
23550;DHT22;11953;49.010;8.608;2023-02-02T10:18:12;7.00;99.90
23550;DHT22;11953;49.010;8.608;2023-02-02T10:21:05;7.00;99.90
23550;DHT22;11953;49.010;8.608;2023-02-02T10:23:52;7.10;99.90
23550;DHT22;11953;49.010;8.608;2023-02-02T10:26:45;7.10;99.90
23550;DHT22;11953;49.010;8.608;2023-02-02T10:29:43;7.20;99.90
23550;DHT22;11953;49.010;8.608;2023-02-02T10:32:41;7.20;99.90
23550;DHT22;11953;49.010;8.608;2023-02-02T10:35:35;7.20;99.90
23550;DHT22;11953;49.010;8.608;2023-02-02T10:38:33;7.20;99.90
23550;DHT22;11953;49.010;8.608;2023-02-02T10:41:27;7.20;99.90
23550;DHT22;11953;49.010;8.608;2023-02-02T10:44:23;7.30;99.90
23550;DHT22;11953;49.010;8.608;2023-02-02T10:47:15;7.30;99.90
23550;DHT22;11953;49.010;8.608;2023-02-02T10:50:15;7.40;99.90
23550;DHT22;11953;49.010;8.608;2023-02-02T10:53:08;7.40;99.90
23550;DHT22;11953;49.010;8.608;2023-02-02T10:56:01;7.30;99.90
23550;DHT22;11953;49.010;8.608;2023-02-02T10:58:56;7.30;99.90
23550;DHT22;11953;49.010;8.608;2023-02-02T11:01:45;7.20;99.90
23550;DHT22;11953;49.010;8.608;2023-02-02T11:04:32;7.20;99.90
23550;DHT22;11953;49.010;8.608;2023-02-02T11:07:36;7.20;99.90
23550;DHT22;11953;49.010;8.608;2023-02-02T11:10:23;7.20;99.90
23550;DHT22;11953;49.010;8.608;2023-02-02T11:13:15;7.20;99.90
23550;DHT22;11953;49.010;8.608;2023-02-02T11:16:21;7.20;99.90
23550;DHT22;11953;49.010;8.608;2023-02-02T11:19:27;7.20;99.90
23550;DHT22;11953;49.010;8.608;2023-02-02T11:22:26;7.20;99.90
23550;DHT22;11953;49.010;8.608;2023-02-02T11:25:25;7.30;99.90
23550;DHT22;11953;49.010;8.608;2023-02-02T11:28:18;7.30;99.90
23550;DHT22;11953;49.010;8.608;2023-02-02T11:31:05;7.30;99.90
23550;DHT22;11953;49.010;8.608;2023-02-02T11:33:52;7.40;99.90
23550;DHT22;11953;49.010;8.608;2023-02-02T11:39:48;7.50;99.90
23550;DHT22;11953;49.010;8.608;2023-02-02T11:42:43;7.40;99.90
23550;DHT22;11953;49.010;8.608;2023-02-02T11:45:33;7.40;99.90
23550;DHT22;11953;49.010;8.608;2023-02-02T11:48:23;7.40;99.90
23550;DHT22;11953;49.010;8.608;2023-02-02T11:51:21;7.50;99.90
23550;DHT22;11953;49.010;8.608;2023-02-02T11:54:15;7.50;99.90
23550;DHT22;11953;49.010;8.608;2023-02-02T11:57:07;7.50;99.90
23550;DHT22;11953;49.010;8.608;2023-02-02T12:00:06;7.50;99.90
23550;DHT22;11953;49.010;8.608;2023-02-02T12:03:00;7.50;99.90
23550;DHT22;11953;49.010;8.608;2023-02-02T12:05:46;7.50;99.90
23550;DHT22;11953;49.010;8.608;2023-02-02T12:08:35;7.40;99.90
23550;DHT22;11953;49.010;8.608;2023-02-02T12:11:36;7.50;99.90
23550;DHT22;11953;49.010;8.608;2023-02-02T12:14:31;7.50;99.90
23550;DHT22;11953;49.010;8.608;2023-02-02T12:17:31;7.50;99.90
23550;DHT22;11953;49.010;8.608;2023-02-02T12:20:33;7.50;99.90
23550;DHT22;11953;49.010;8.608;2023-02-02T12:23:53;7.50;99.90
23550;DHT22;11953;49.010;8.608;2023-02-02T12:26:48;7.50;99.90
23550;DHT22;11953;49.010;8.608;2023-02-02T12:30:09;7.50;99.90
23550;DHT22;11953;49.010;8.608;2023-02-02T12:33:07;7.50;99.90
23550;DHT22;11953;49.010;8.608;2023-02-02T12:36:19;7.60;99.90
23550;DHT22;11953;49.010;8.608;2023-02-02T12:39:22;7.60;99.90
23550;DHT22;11953;49.010;8.608;2023-02-02T12:42:33;7.60;99.90
23550;DHT22;11953;49.010;8.608;2023-02-02T12:45:36;7.50;99.90
23550;DHT22;11953;49.010;8.608;2023-02-02T12:48:48;7.60;99.90
23550;DHT22;11953;49.010;8.608;2023-02-02T12:51:44;7.60;99.90
23550;DHT22;11953;49.010;8.608;2023-02-02T12:55:03;7.60;99.90
23550;DHT22;11953;49.010;8.608;2023-02-02T12:58:03;7.60;99.90
23550;DHT22;11953;49.010;8.608;2023-02-02T13:01:09;7.70;99.90
23550;DHT22;11953;49.010;8.608;2023-02-02T13:04:18;7.70;99.90
23550;DHT22;11953;49.010;8.608;2023-02-02T13:07:27;7.70;99.90
23550;DHT22;11953;49.010;8.608;2023-02-02T13:10:20;7.70;99.90
23550;DHT22;11953;49.010;8.608;2023-02-02T13:13:13;7.80;99.90
23550;DHT22;11953;49.010;8.608;2023-02-02T13:16:06;7.80;99.90
23550;DHT22;11953;49.010;8.608;2023-02-02T13:18:57;7.70;99.90
23550;DHT22;11953;49.010;8.608;2023-02-02T13:21:47;7.80;99.90
23550;DHT22;11953;49.010;8.608;2023-02-02T13:24:37;7.70;99.90
23550;DHT22;11953;49.010;8.608;2023-02-02T13:27:26;7.80;99.90
23550;DHT22;11953;49.010;8.608;2023-02-02T13:30:25;7.80;99.90
23550;DHT22;11953;49.010;8.608;2023-02-02T13:33:15;7.80;99.90
23550;DHT22;11953;49.010;8.608;2023-02-02T13:36:07;7.70;99.90
23550;DHT22;11953;49.010;8.608;2023-02-02T13:38:57;7.70;99.90
23550;DHT22;11953;49.010;8.608;2023-02-02T13:41:46;7.70;99.90
23550;DHT22;11953;49.010;8.608;2023-02-02T13:44:37;7.70;99.90
23550;DHT22;11953;49.010;8.608;2023-02-02T13:47:35;7.70;99.90
23550;DHT22;11953;49.010;8.608;2023-02-02T13:50:24;7.70;99.90
23550;DHT22;11953;49.010;8.608;2023-02-02T13:53:32;7.80;99.90
23550;DHT22;11953;49.010;8.608;2023-02-02T13:56:42;7.80;99.90
23550;DHT22;11953;49.010;8.608;2023-02-02T13:59:50;7.70;99.90
23550;DHT22;11953;49.010;8.608;2023-02-02T14:02:42;7.70;99.90
23550;DHT22;11953;49.010;8.608;2023-02-02T14:05:31;7.70;99.90
23550;DHT22;11953;49.010;8.608;2023-02-02T14:08:20;7.70;99.90
23550;DHT22;11953;49.010;8.608;2023-02-02T14:11:07;7.80;99.90
23550;DHT22;11953;49.010;8.608;2023-02-02T14:13:57;7.80;99.90
23550;DHT22;11953;49.010;8.608;2023-02-02T14:17:05;7.80;99.90
23550;DHT22;11953;49.010;8.608;2023-02-02T14:19:54;7.70;99.90
23550;DHT22;11953;49.010;8.608;2023-02-02T14:22:44;7.70;99.90
23550;DHT22;11953;49.010;8.608;2023-02-02T14:25:46;7.70;99.90
23550;DHT22;11953;49.010;8.608;2023-02-02T14:28:40;7.70;99.90
23550;DHT22;11953;49.010;8.608;2023-02-02T14:31:39;7.70;99.90
23550;DHT22;11953;49.010;8.608;2023-02-02T14:34:33;7.80;99.90
23550;DHT22;11953;49.010;8.608;2023-02-02T14:37:35;7.80;99.90
23550;DHT22;11953;49.010;8.608;2023-02-02T14:40:33;7.70;99.90
23550;DHT22;11953;49.010;8.608;2023-02-02T14:43:31;7.80;99.90
23550;DHT22;11953;49.010;8.608;2023-02-02T14:46:35;7.80;99.90
23550;DHT22;11953;49.010;8.608;2023-02-02T14:49:26;7.80;99.90
23550;DHT22;11953;49.010;8.608;2023-02-02T14:52:21;7.70;99.90
23550;DHT22;11953;49.010;8.608;2023-02-02T14:55:17;7.70;99.90
23550;DHT22;11953;49.010;8.608;2023-02-02T14:58:05;7.80;99.90
23550;DHT22;11953;49.010;8.608;2023-02-02T15:01:03;7.70;99.90
23550;DHT22;11953;49.010;8.608;2023-02-02T15:03:53;7.70;99.90
23550;DHT22;11953;49.010;8.608;2023-02-02T15:06:40;7.70;99.90
23550;DHT22;11953;49.010;8.608;2023-02-02T15:09:36;7.70;99.90
23550;DHT22;11953;49.010;8.608;2023-02-02T15:12:30;7.70;99.90
23550;DHT22;11953;49.010;8.608;2023-02-02T15:15:19;7.70;99.90
23550;DHT22;11953;49.010;8.608;2023-02-02T15:18:13;7.70;99.90
23550;DHT22;11953;49.010;8.608;2023-02-02T15:21:04;7.70;99.90
23550;DHT22;11953;49.010;8.608;2023-02-02T15:23:51;7.70;99.90
23550;DHT22;11953;49.010;8.608;2023-02-02T15:26:40;7.70;99.90
23550;DHT22;11953;49.010;8.608;2023-02-02T15:29:38;7.70;99.90
23550;DHT22;11953;49.010;8.608;2023-02-02T15:32:27;7.70;99.90
23550;DHT22;11953;49.010;8.608;2023-02-02T15:35:18;7.80;99.90
23550;DHT22;11953;49.010;8.608;2023-02-02T15:38:11;7.70;99.90
23550;DHT22;11953;49.010;8.608;2023-02-02T15:41:04;7.70;99.90
23550;DHT22;11953;49.010;8.608;2023-02-02T15:43:51;7.70;99.90
23550;DHT22;11953;49.010;8.608;2023-02-02T15:46:39;7.70;99.90
23550;DHT22;11953;49.010;8.608;2023-02-02T15:49:30;7.70;99.90
23550;DHT22;11953;49.010;8.608;2023-02-02T15:52:22;7.70;99.90
23550;DHT22;11953;49.010;8.608;2023-02-02T15:55:19;7.70;99.90
23550;DHT22;11953;49.010;8.608;2023-02-02T15:58:21;7.70;99.90
23550;DHT22;11953;49.010;8.608;2023-02-02T16:01:15;7.70;99.90
23550;DHT22;11953;49.010;8.608;2023-02-02T16:04:13;7.70;99.90
23550;DHT22;11953;49.010;8.608;2023-02-02T16:07:02;7.70;99.90
23550;DHT22;11953;49.010;8.608;2023-02-02T16:09:49;7.70;99.90
23550;DHT22;11953;49.010;8.608;2023-02-02T16:12:39;7.70;99.90
23550;DHT22;11953;49.010;8.608;2023-02-02T16:15:27;7.70;99.90
23550;DHT22;11953;49.010;8.608;2023-02-02T16:18:14;7.70;99.90
23550;DHT22;11953;49.010;8.608;2023-02-02T16:21:15;7.70;99.90
23550;DHT22;11953;49.010;8.608;2023-02-02T16:24:04;7.70;99.90
23550;DHT22;11953;49.010;8.608;2023-02-02T16:26:54;7.70;99.90
23550;DHT22;11953;49.010;8.608;2023-02-02T16:29:43;7.70;99.90
23550;DHT22;11953;49.010;8.608;2023-02-02T16:32:32;7.70;99.90
23550;DHT22;11953;49.010;8.608;2023-02-02T16:35:33;7.60;99.90
23550;DHT22;11953;49.010;8.608;2023-02-02T16:38:24;7.60;99.90
23550;DHT22;11953;49.010;8.608;2023-02-02T16:41:12;7.60;99.90
23550;DHT22;11953;49.010;8.608;2023-02-02T16:44:28;7.60;99.90
23550;DHT22;11953;49.010;8.608;2023-02-02T16:47:35;7.60;99.90
23550;DHT22;11953;49.010;8.608;2023-02-02T16:50:28;7.50;99.90
23550;DHT22;11953;49.010;8.608;2023-02-02T16:53:21;7.50;99.90
23550;DHT22;11953;49.010;8.608;2023-02-02T16:56:27;7.50;99.90
23550;DHT22;11953;49.010;8.608;2023-02-02T16:59:17;7.50;99.90
23550;DHT22;11953;49.010;8.608;2023-02-02T17:02:24;7.40;99.90
23550;DHT22;11953;49.010;8.608;2023-02-02T17:05:18;7.40;99.90
23550;DHT22;11953;49.010;8.608;2023-02-02T17:08:05;7.40;99.90
23550;DHT22;11953;49.010;8.608;2023-02-02T17:11:03;7.30;99.90
23550;DHT22;11953;49.010;8.608;2023-02-02T17:13:52;7.40;99.90
23550;DHT22;11953;49.010;8.608;2023-02-02T17:16:40;7.40;99.90
23550;DHT22;11953;49.010;8.608;2023-02-02T17:19:28;7.40;99.90
23550;DHT22;11953;49.010;8.608;2023-02-02T17:22:16;7.40;99.90
23550;DHT22;11953;49.010;8.608;2023-02-02T17:25:04;7.40;99.90
23550;DHT22;11953;49.010;8.608;2023-02-02T17:27:52;7.40;99.90
23550;DHT22;11953;49.010;8.608;2023-02-02T17:30:41;7.40;99.90
23550;DHT22;11953;49.010;8.608;2023-02-02T17:33:28;7.40;99.90
23550;DHT22;11953;49.010;8.608;2023-02-02T17:36:18;7.40;99.90
23550;DHT22;11953;49.010;8.608;2023-02-02T17:39:05;7.40;99.90
23550;DHT22;11953;49.010;8.608;2023-02-02T17:41:54;7.40;99.90
23550;DHT22;11953;49.010;8.608;2023-02-02T17:44:43;7.40;99.90
23550;DHT22;11953;49.010;8.608;2023-02-02T17:47:31;7.40;99.90
23550;DHT22;11953;49.010;8.608;2023-02-02T17:50:21;7.40;99.90
23550;DHT22;11953;49.010;8.608;2023-02-02T17:53:11;7.50;99.90
23550;DHT22;11953;49.010;8.608;2023-02-02T17:55:58;7.50;99.90
23550;DHT22;11953;49.010;8.608;2023-02-02T17:58:44;7.50;99.90
23550;DHT22;11953;49.010;8.608;2023-02-02T18:01:31;7.50;99.90
23550;DHT22;11953;49.010;8.608;2023-02-02T18:04:20;7.50;99.90
23550;DHT22;11953;49.010;8.608;2023-02-02T18:07:09;7.50;99.90
23550;DHT22;11953;49.010;8.608;2023-02-02T18:09:55;7.50;99.90
23550;DHT22;11953;49.010;8.608;2023-02-02T18:12:42;7.50;99.90
23550;DHT22;11953;49.010;8.608;2023-02-02T18:15:28;7.50;99.90
23550;DHT22;11953;49.010;8.608;2023-02-02T18:18:15;7.40;99.90
23550;DHT22;11953;49.010;8.608;2023-02-02T18:21:06;7.40;99.90
23550;DHT22;11953;49.010;8.608;2023-02-02T18:23:53;7.40;99.90
23550;DHT22;11953;49.010;8.608;2023-02-02T18:26:40;7.40;99.90